»·PEaware :: TWA2241 KJFK-KBOS

TWA2241 :: KJFK-KBOS

FLIGHT INFORMATION

Flight Status: Arrived
Operator:
Trans World Airlines
More flights by this operator :: More flights under this callsign
Pilot: William J. (43136)
Aircraft: BOEING 767-300
(B763)
More flights by this aircraft type
Origin: KJFK Kennedy Intl
United States
Destination: KBOS Logan Intl
United States
More flights between these airports :: More routes between these airports
Route: MERIT ROBUC3
File this flight plan on PilotEdge
Remarks: Testing Pilot Edge
Altitude:
(Current/Filed)
19,000ft
Speed:
(Current/Filed)
475kts
Departed: 18-Feb-23 01:14 PM
Arrived: 18-Feb-23 01:59 PM
Distance/Time
Traveled:
162nm/0:44
Distance/Time
To Go:
Arrived

Flight Plot

Page will automatically refresh every two minutes.

Flight plan parsing failed; only flown route is shown


Map Options




Map Legend


Flown Route
Filed Route
Departure Airport
Arrival Airport
Navaid (VOR, NDB)
Fix

Horizontal Profiles

Position Reports

Time Latitude Longitude Heading Altitude Ground
Speed
18-Feb-23 12:59 40.640188 -73.780686 240 27ft 0kts
18-Feb-23 13:00 40.640188 -73.780686 240 27ft 0kts
18-Feb-23 13:01 40.640188 -73.780686 240 27ft 0kts
18-Feb-23 13:02 40.640188 -73.780686 240 27ft 0kts
18-Feb-23 13:03 40.640188 -73.780686 240 27ft 0kts
18-Feb-23 13:04 40.640188 -73.780686 240 27ft 0kts
18-Feb-23 13:05 40.640188 -73.780686 240 27ft 0kts
18-Feb-23 13:06 40.640491 -73.780114 191 27ft 2kts
18-Feb-23 13:07 40.640621 -73.780131 149 27ft 0kts
18-Feb-23 13:08 40.640308 -73.779364 110 27ft 6kts
18-Feb-23 13:09 40.638903 -73.777943 146 27ft 3kts
18-Feb-23 13:10 40.637184 -73.776699 187 27ft 8kts
18-Feb-23 13:11 40.634343 -73.778901 212 27ft 12kts
18-Feb-23 13:12 40.632082 -73.780765 296 27ft 6kts
18-Feb-23 13:13 40.636433 -73.790370 300 27ft 119kts
18-Feb-23 13:14 40.646765 -73.845974 237 1927ft 177kts
18-Feb-23 13:15 40.600209 -73.883874 182 4126ft 234kts
18-Feb-23 13:16 40.533819 -73.854298 143 6590ft 280kts
18-Feb-23 13:17 40.536209 -73.758655 38 9384ft 292kts
18-Feb-23 13:18 40.607759 -73.700271 19 12165ft 335kts
18-Feb-23 13:20 40.700667 -73.636811 22 14607ft 412kts
18-Feb-23 13:21 40.803462 -73.561424 22 17828ft 433kts
18-Feb-23 13:22 40.910978 -73.484297 22 19296ft 443kts
18-Feb-23 13:23 41.018362 -73.404715 23 19324ft 443kts
18-Feb-23 13:24 41.125630 -73.325257 22 19323ft 443kts
18-Feb-23 13:25 41.233408 -73.245972 22 19325ft 443kts
18-Feb-23 13:26 41.341234 -73.166974 22 19311ft 443kts
18-Feb-23 13:27 41.405136 -73.028099 82 19312ft 473kts
18-Feb-23 13:28 41.413456 -72.852114 83 19316ft 478kts
18-Feb-23 13:29 41.430596 -72.676910 80 19324ft 477kts
18-Feb-23 13:30 41.448618 -72.501974 80 19323ft 477kts
18-Feb-23 13:31 41.466578 -72.327351 80 19323ft 474kts
18-Feb-23 13:32 41.493956 -72.157582 61 19317ft 464kts
18-Feb-23 13:33 41.554393 -72.006130 60 19309ft 464kts
18-Feb-23 13:34 41.601668 -71.844869 66 19313ft 467kts
18-Feb-23 13:35 41.650026 -71.683945 64 19312ft 469kts
18-Feb-23 13:36 41.697091 -71.521900 65 18918ft 464kts
18-Feb-23 13:37 41.749370 -71.366467 54 15939ft 452kts
18-Feb-23 13:38 41.813308 -71.223866 55 13174ft 436kts
18-Feb-23 13:39 41.870999 -71.085834 55 11280ft 405kts
18-Feb-23 13:40 41.926486 -70.956194 54 11005ft 402kts
18-Feb-23 13:41 41.985909 -70.828770 40 11001ft 385kts
18-Feb-23 13:42 42.066805 -70.764921 19 10996ft 305kts
18-Feb-23 13:43 42.140460 -70.729577 345 10181ft 264kts
18-Feb-23 13:44 42.211452 -70.749973 341 9182ft 260kts
18-Feb-23 13:44 42.270806 -70.764790 343 8341ft 256kts
18-Feb-23 13:45 42.340413 -70.780930 344 7339ft 252kts
18-Feb-23 13:47 42.420466 -70.797162 345 6179ft 246kts
18-Feb-23 13:48 42.487517 -70.810801 343 5184ft 241kts
18-Feb-23 13:49 42.554353 -70.817996 5 4192ft 247kts
18-Feb-23 13:49 42.604741 -70.786795 14 3975ft 225kts
18-Feb-23 13:50 42.634235 -70.834547 246 3980ft 205kts
18-Feb-23 13:51 42.597576 -70.891205 208 3972ft 190kts
18-Feb-23 13:52 42.550603 -70.915750 197 3660ft 176kts
18-Feb-23 13:53 42.507301 -70.935926 203 2765ft 150kts
18-Feb-23 13:54 42.470531 -70.954057 202 2019ft 135kts
18-Feb-23 13:55 42.435471 -70.971058 202 1307ft 134kts
18-Feb-23 13:56 42.400331 -70.988203 202 613ft 134kts
18-Feb-23 13:57 42.366235 -71.004660 200 14ft 88kts
18-Feb-23 13:58 42.361342 -71.008332 290 14ft 6kts
18-Feb-23 13:59 42.362367 -71.011368 294 14ft 12kts
18-Feb-23 14:00 42.364053 -71.015466 301 14ft 8kts
18-Feb-23 14:01 42.365023 -71.015623 56 14ft 0kts
18-Feb-23 14:02 42.365023 -71.015622 56 14ft 0kts

Navigation Log

Ident Type
Flight plan parsing failed, navigation log unavailable